Plymouth Light

42° 00' 12"N, 70° 36' 04"W, Elevation 54 ft.
Eastern Time

Hourly observations for the last 72 hours

Date Time Temperature (°F) Humi-
dity

(%)
Wind
(mph)
Pressure Rain (in) Sun
(W/m2)
ET
(in)
Air Dew 6 Hour 1 Hr 3 Hr 6 Hr Day
Alt
(in)
Sea
Level

(mb)
Max Min
17 10:00 38.9 28.9 67 W 22 G 31 29.40 995.5 0.00 366 0.031
17 09:00 37.8 28.9 70 W 22 G 31 29.38 995.0 0.00 265 0.025
17 08:00 36.4 29.2 75 W 18 G 33 29.36 994.4 0.00 84 0.022
17 07:00 36.0 29.5 37.5 35.7 77 W 17 G 30 29.34 993.5 0.00 0 0.020
17 06:00 35.9 29.7 78 W 18 G 29 29.32 993.1 0.00 0 0.018
17 05:00 36.1 29.9 78 W 20 G 32 29.30 992.3 0.00 0 0.016
17 04:00 36.2 29.7 77 W 19 G 31 29.28 991.7 0.00 0 0.014
17 03:00 36.3 31.0 81 W 17 G 28 29.28 991.6 0.00 0 0.012
17 02:00 37.1 31.2 79 W 18 G 27 29.26 990.9 0.00 0 0.010
17 01:00 37.4 32.1 43.0 37.3 81 W 16 G 27 29.23 989.7 0.00 0 0.008
17 00:00 38.1 32.8 81 W 15 G 22 29.20 988.9 1.12 0 0.006
16 23:00 39.0 34.0 82 W 16 G 24 29.20 988.9 0.00 0 0.004
16 22:00 40.5 37.8 90 W 8 G 12 29.21 989.2 0.00 0 0.003
16 21:00 41.4 38.4 89 W 13 G 16 29.21 989.3 0.00 0 0.002
16 20:00 42.3 39.3 89 WSW 14 G 18 29.23 989.9 0.00 0 0.001
16 19:00 42.9 40.5 50.7 42.9 91 WSW 10 G 17 29.23 989.9 0.00 0 0.000
16 18:00 43.5 41.3 92 SW 8 G 17 29.24 990.2 1.13 0 0.031
16 17:00 44.1 41.9 92 SW 10 G 17 29.24 990.2 1.13 0 0.030
16 16:00 45.8 43.0 90 SW 17 G 24 29.22 989.5 1.13 40 0.028
16 15:00 49.0 45.6 88 SW 14 G 20 29.21 989.3 1.13 221 0.024
16 14:00 49.9 47.7 92 SW 14 G 21 29.22 989.5 1.13 381 0.019
16 13:00 45.4 44.6 49.2 43.8 97 S 17 G 25 29.22 989.5 0.27 0.96 1.13 185 0.015
16 12:00 46.4 45.6 97 SE 28 G 38 29.23 990.0 0.06 1.13 12 0.014
16 11:00 48.0 47.2 97 SSE 11 G 22 29.36 994.3 0.21 1.07 18 0.013
16 10:00 45.6 44.8 97 SSE 26 G 40 29.41 996.1 0.21 0.69 0.86 11 0.012
16 09:00 45.7 44.6 96 ESE 31 G 47 29.44 996.9 0.33 0.65 11 0.011
16 08:00 45.0 43.7 95 ESE 30 G 42 29.50 999.0 0.15 0.32 0 0.010
16 07:00 43.9 42.6 44.0 41.2 95 ESE 27 G 39 29.56 1001.1 0.04 0.16 0.16 0.17 0 0.009
16 06:00 42.9 41.6 95 ESE 18 G 29 29.64 1003.7 0.12 0.13 0 0.008
16 05:00 42.7 40.8 93 ESE 21 G 29 29.72 1006.4 0.01 0 0.007
16 04:00 42.5 39.8 90 E 17 G 27 29.74 1007.3 0.01 0 0.006
16 03:00 41.8 39.1 90 SE 18 G 22 29.82 1009.7 0.01 0 0.005
16 02:00 41.4 38.1 88 SSE 9 G 21 29.85 1010.9 0.01 0 0.004
16 01:00 41.3 37.7 41.3 39.8 87 ESE 21 G 34 29.83 1010.1 0.01 0.01 0.01 0 0.003
16 00:00 40.5 36.9 87 ESE 12 G 21 29.89 1012.2 0.01 0.01 0 0.002
15 23:00 40.3 37.3 89 SE 13 G 16 29.96 1014.5 0.00 0 0.001
15 22:00 40.0 36.7 88 ESE 6 G 10 30.00 1016.1 0.00 0 0.001
15 21:00 40.0 36.4 87 E 5 G 8 30.03 1016.8 0.00 0 0.001
15 20:00 40.0 35.9 85 ESE 3 G 6 30.05 1017.6 0.00 0 0.001
15 19:00 40.1 35.4 41.2 40.0 83 ESE 7 G 11 30.04 1017.2 0.00 0 0.000
15 18:00 40.2 34.5 80 E 8 G 13 30.03 1017.1 0.01 0 0.048
15 17:00 40.4 33.1 75 E 12 G 15 30.02 1016.6 0.01 0 0.046
15 16:00 40.4 32.8 74 E 12 G 16 30.01 1016.4 0.01 33 0.044
15 15:00 40.6 34.6 79 E 10 G 13 30.03 1017.1 0.01 127 0.041
15 14:00 40.5 33.5 76 E 16 G 18 30.01 1016.4 0.01 162 0.037
15 13:00 41.2 34.2 42.2 35.3 76 E 14 G 16 30.00 1016.1 0.01 257 0.031
15 12:00 41.5 35.5 79 E 8 G 13 30.03 1016.8 0.01 445 0.023
15 11:00 42.0 36.0 79 ENE 9 G 12 30.03 1017.1 0.01 427 0.015
15 10:00 42.0 36.0 79 ENE 8 G 11 30.04 1017.2 0.01 387 0.008
15 09:00 40.8 36.3 84 NE 9 G 14 30.02 1016.5 0.01 128 0.004
15 08:00 39.2 36.5 90 NNE 8 G 13 29.99 1015.5 0.01 56 0.003
15 07:00 35.7 33.9 39.8 35.3 93 N 4 G 8 29.98 1015.1 0.01 0 0.003
15 06:00 36.9 34.2 90 N 4 G 6 29.95 1014.4 0.01 0 0.003
15 05:00 39.5 35.4 85 NE 9 G 12 29.94 1013.8 0.01 0 0.002
15 04:00 39.8 36.5 88 NE 11 G 14 29.92 1013.3 0.01 0 0.001
15 03:00 39.6 36.9 90 NE 11 G 15 29.91 1012.9 0.01 0 0.000
15 02:00 39.4 37.5 93 NE 9 G 13 29.90 1012.6 0.01 0 0.000
15 01:00 38.6 37.0 39.7 38.4 94 NNE 6 G 11 29.87 1011.5 0.01 0.01 0 0.000
15 00:00 38.5 36.9 94 N 3 G 8 29.86 1011.3 0.01 0 0.000
14 23:00 38.6 37.0 94 NNE 9 G 12 29.85 1010.9 0.01 0 0.000
14 22:00 38.9 37.6 95 NNE 8 G 11 29.84 1010.7 0.01 0.01 0.01 0 0.000
14 21:00 39.2 37.6 94 NNE 6 G 13 29.83 1010.3 0.00 0 0.000
14 20:00 39.3 37.7 94 NNE 7 G 11 29.82 1009.7 0.00 0 0.000
14 19:00 39.6 37.5 40.2 38.4 92 NNE 7 G 11 29.80 1009.2 0.00 0 0.000
14 18:00 39.6 37.2 91 NE 8 G 11 29.79 1008.7 0.00 0 0.025
14 17:00 39.8 37.1 90 NE 5 G 7 29.79 1008.8 0.00 0 0.025
14 16:00 40.1 37.1 89 E 4 G 6 29.78 1008.5 0.00 14 0.024
14 15:00 39.9 36.6 88 SE 5 G 9 29.78 1008.6 0.00 76 0.023
14 14:00 39.1 36.1 89 SE 5 G 9 29.78 1008.5 0.00 46 0.022
14 13:00 38.6 35.1 39.7 35.6 87 ESE 4 G 7 29.77 1008.2 0.00 134 0.020
14 12:00 38.7 34.6 85 NNE 4 G 5 29.79 1008.8 0.00 192 0.017
14 11:00 38.8 34.4 84 N 2 G 4 29.83 1010.0 0.00 127 0.015

Data generated by WxSolution Version 1.9.1.1, Build 2017.11.27.